createdAt,value
2022-12-17T00:01:28.974Z,101226.59
2022-12-17T00:04:27.162Z,101229.16
2022-12-17T00:07:26.280Z,101225.69
2022-12-17T00:10:12.995Z,101228.16
2022-12-17T00:13:04.361Z,101228.06
2022-12-17T00:15:57.371Z,101226.38
2022-12-17T00:18:46.777Z,101237.78
2022-12-17T00:21:39.696Z,101240.41
2022-12-17T00:24:36.477Z,101246.47
2022-12-17T00:27:31.082Z,101243.84
2022-12-17T00:30:17.528Z,101245.59
2022-12-17T00:33:09.033Z,101245.53
2022-12-17T00:36:06.598Z,101250.63
2022-12-17T00:38:56.152Z,101254.28
2022-12-17T00:41:49.702Z,101251.69
2022-12-17T00:44:50.159Z,101252.56
2022-12-17T00:47:39.236Z,101250.78
2022-12-17T00:50:28.592Z,101245.53
2022-12-17T00:53:17.044Z,101249.97
2022-12-17T00:56:21.403Z,101252.66
2022-12-17T01:02:09.636Z,101253.34
2022-12-17T01:05:01.904Z,101264.69
2022-12-17T01:07:52.323Z,101264.56
2022-12-17T01:10:48.063Z,101268.00
2022-12-17T01:13:36.390Z,101268.00
2022-12-17T01:16:32.352Z,101272.47
2022-12-17T01:19:24.608Z,101273.22
2022-12-17T01:22:10.186Z,101274.00
2022-12-17T01:24:57.590Z,101278.34
2022-12-17T01:27:47.915Z,101280.88
2022-12-17T01:30:36.145Z,101281.69
2022-12-17T01:33:34.132Z,101279.78
2022-12-17T01:39:40.240Z,101291.88
2022-12-17T01:42:34.980Z,101298.81
2022-12-17T01:45:27.018Z,101295.16
2022-12-17T01:48:22.484Z,101297.75
2022-12-17T01:51:13.153Z,101306.47
2022-12-17T01:54:11.939Z,101309.00
2022-12-17T01:57:01.296Z,101314.03
2022-12-17T02:00:06.553Z,101307.06
2022-12-17T02:03:14.700Z,101326.06
2022-12-17T02:06:22.370Z,101324.16
2022-12-17T02:09:22.794Z,101326.75
2022-12-17T02:12:26.792Z,101326.72
2022-12-17T02:15:22.093Z,101335.50
2022-12-17T02:18:14.225Z,101335.47
2022-12-17T02:21:03.498Z,101334.56
2022-12-17T02:23:58.495Z,101341.66
2022-12-17T02:27:10.913Z,101342.44
2022-12-17T02:30:01.861Z,101349.22
2022-12-17T02:33:03.955Z,101351.88
2022-12-17T02:35:54.283Z,101357.94
2022-12-17T02:38:53.212Z,101351.94
2022-12-17T02:42:00.566Z,101350.34
2022-12-17T02:44:49.122Z,101358.38
2022-12-17T02:47:38.113Z,101350.47
2022-12-17T02:50:26.540Z,101350.50
2022-12-17T02:53:12.831Z,101355.59
2022-12-17T02:56:04.363Z,101363.38
2022-12-17T02:58:55.666Z,101365.16
2022-12-17T03:01:44.073Z,101370.97
2022-12-17T03:04:34.993Z,101365.91
2022-12-17T03:07:25.479Z,101370.84
2022-12-17T03:10:14.580Z,101371.97
2022-12-17T03:13:13.718Z,101384.41
2022-12-17T03:16:26.823Z,101381.88
2022-12-17T03:19:19.469Z,101376.66
2022-12-17T03:22:11.658Z,101380.16
2022-12-17T03:24:57.234Z,101386.22
2022-12-17T03:27:55.850Z,101383.63
2022-12-17T03:30:45.690Z,101388.69
2022-12-17T03:33:45.539Z,101391.38
2022-12-17T03:36:35.709Z,101394.91
2022-12-17T03:39:28.493Z,101394.63
2022-12-17T03:42:17.248Z,101405.03
2022-12-17T03:45:07.577Z,101396.22
2022-12-17T03:47:55.875Z,101402.25
2022-12-17T03:50:45.484Z,101411.09
2022-12-17T03:53:32.974Z,101412.31
2022-12-17T03:56:18.791Z,101411.38
2022-12-17T03:59:04.360Z,101415.66
2022-12-17T04:01:53.082Z,101414.94
2022-12-17T04:04:39.121Z,101416.63
2022-12-17T04:07:29.897Z,101416.63
2022-12-17T04:10:15.590Z,101419.25
2022-12-17T04:13:03.760Z,101425.38
2022-12-17T04:15:49.616Z,101414.97
2022-12-17T04:18:35.243Z,101423.72
2022-12-17T04:21:30.833Z,101427.63
2022-12-17T04:24:16.406Z,101418.38
2022-12-17T04:27:02.091Z,101421.97
2022-12-17T04:29:47.878Z,101428.94
2022-12-17T04:32:38.513Z,101429.97
2022-12-17T04:35:30.180Z,101435.19
2022-12-17T04:38:18.772Z,101444.81
2022-12-17T04:41:04.518Z,101450.00
2022-12-17T04:43:50.173Z,101446.31
2022-12-17T04:46:36.682Z,101451.66
2022-12-17T04:49:22.317Z,101442.88
2022-12-17T04:52:17.319Z,101448.16
2022-12-17T04:55:15.902Z,101456.69
2022-12-17T04:58:01.271Z,101441.91
2022-12-17T05:00:51.062Z,101447.09
2022-12-17T05:03:37.170Z,101451.47
2022-12-17T05:06:23.452Z,101450.66
2022-12-17T05:09:09.027Z,101457.53
2022-12-17T05:11:54.636Z,101468.94
2022-12-17T05:14:40.187Z,101475.88
2022-12-17T05:17:25.629Z,101480.16
2022-12-17T05:20:11.337Z,101479.38
2022-12-17T05:22:56.827Z,101490.63
2022-12-17T05:25:42.535Z,101491.47
2022-12-17T05:28:28.244Z,101495.91
2022-12-17T05:31:17.803Z,101508.97
2022-12-17T05:34:03.449Z,101506.31
2022-12-17T05:36:49.355Z,101504.53
2022-12-17T05:39:35.253Z,101502.69
2022-12-17T05:42:20.838Z,101504.50
2022-12-17T05:45:06.420Z,101505.31
2022-12-17T05:47:51.852Z,101503.53
2022-12-17T05:50:37.544Z,101507.84
2022-12-17T05:53:24.175Z,101513.13
2022-12-17T05:56:09.985Z,101515.47
2022-12-17T05:58:56.097Z,101518.34
2022-12-17T06:01:42.035Z,101517.34
2022-12-17T06:04:28.675Z,101518.19
2022-12-17T06:07:17.273Z,101535.56
2022-12-17T06:10:02.968Z,101533.00
2022-12-17T06:12:51.474Z,101532.25
2022-12-17T06:15:37.071Z,101535.59
2022-12-17T06:18:22.687Z,101548.69
2022-12-17T06:21:07.828Z,101544.38
2022-12-17T06:23:53.362Z,101548.47
2022-12-17T06:26:39.014Z,101551.22
2022-12-17T06:29:24.675Z,101551.97
2022-12-17T06:32:10.294Z,101559.81
2022-12-17T06:34:55.754Z,101564.31
2022-12-17T06:37:41.229Z,101559.09
2022-12-17T06:40:26.976Z,101562.56
2022-12-17T06:43:15.672Z,101561.03
2022-12-17T06:46:01.263Z,101557.44
2022-12-17T06:48:48.842Z,101563.59
2022-12-17T06:51:34.306Z,101578.47
2022-12-17T06:54:20.099Z,101568.03
2022-12-17T06:57:05.689Z,101588.88
2022-12-17T06:59:51.376Z,101587.03
2022-12-17T07:02:40.320Z,101594.06
2022-12-17T07:05:28.369Z,101608.88
2022-12-17T07:08:20.254Z,101603.63
2022-12-17T07:11:11.647Z,101610.59
2022-12-17T07:14:00.008Z,101614.13
2022-12-17T07:16:45.723Z,101621.13
2022-12-17T07:19:31.258Z,101620.22
2022-12-17T07:22:21.913Z,101623.78
2022-12-17T07:25:13.546Z,101622.13
2022-12-17T07:27:59.257Z,101625.69
2022-12-17T07:30:52.659Z,101630.69
2022-12-17T07:33:42.187Z,101641.38
2022-12-17T07:36:39.160Z,101640.63
2022-12-17T07:39:30.339Z,101645.69
2022-12-17T07:42:16.330Z,101653.31
2022-12-17T07:45:02.251Z,101647.31
2022-12-17T07:47:51.626Z,101657.59
2022-12-17T07:50:40.348Z,101673.34
2022-12-17T07:56:34.079Z,101674.34
2022-12-17T07:59:23.100Z,101685.59
2022-12-17T08:02:12.769Z,101686.56
2022-12-17T08:05:01.943Z,101693.41
2022-12-17T08:07:51.269Z,101692.69
2022-12-17T08:10:40.169Z,101702.97
2022-12-17T08:13:37.211Z,101705.66
2022-12-17T08:16:28.426Z,101711.75
2022-12-17T08:19:14.081Z,101713.56
2022-12-17T08:22:16.299Z,101711.88
2022-12-17T08:25:05.956Z,101716.75
2022-12-17T08:28:01.096Z,101714.19
2022-12-17T08:30:50.269Z,101719.19
2022-12-17T08:33:39.270Z,101723.44
2022-12-17T08:36:33.252Z,101732.91
2022-12-17T08:39:24.155Z,101734.81
2022-12-17T08:42:12.718Z,101737.25
2022-12-17T08:45:00.728Z,101737.19
2022-12-17T08:47:51.350Z,101739.53
2022-12-17T08:50:55.043Z,101742.06
2022-12-17T08:53:51.807Z,101744.75
2022-12-17T08:56:39.831Z,101756.06
2022-12-17T08:59:30.273Z,101755.19
2022-12-17T09:02:19.292Z,101759.59
2022-12-17T09:05:08.864Z,101762.28
2022-12-17T09:08:13.937Z,101753.78
2022-12-17T09:11:03.010Z,101764.31
2022-12-17T09:13:55.579Z,101770.50
2022-12-17T09:16:52.467Z,101772.34
2022-12-17T09:19:44.489Z,101775.06
2022-12-17T09:22:33.906Z,101776.19
2022-12-17T09:25:19.784Z,101780.53
2022-12-17T09:28:05.915Z,101789.72
2022-12-17T09:34:02.418Z,101790.41
2022-12-17T09:36:51.186Z,101795.31
2022-12-17T09:39:45.040Z,101782.94
2022-12-17T09:42:38.612Z,101785.94
2022-12-17T09:45:35.117Z,101792.97
2022-12-17T09:48:32.119Z,101803.41
2022-12-17T09:51:23.122Z,101797.28
2022-12-17T09:54:10.073Z,101800.69
2022-12-17T09:56:57.709Z,101798.81
2022-12-17T09:59:50.542Z,101798.03
2022-12-17T10:02:56.475Z,101788.56
2022-12-17T10:15:33.777Z,101794.47
2022-12-17T10:18:31.432Z,101790.59
2022-12-17T10:21:32.144Z,101793.09
2022-12-17T10:24:30.925Z,101793.06
2022-12-17T10:27:16.675Z,101796.97
2022-12-17T10:30:21.183Z,101798.25
2022-12-17T10:33:27.044Z,101792.78
2022-12-17T10:36:15.897Z,101794.28
2022-12-17T10:39:01.654Z,101790.00
2022-12-17T10:41:54.710Z,101790.72
2022-12-17T10:44:58.919Z,101786.13
2022-12-17T10:47:50.851Z,101782.50
2022-12-17T10:50:46.274Z,101783.84
2022-12-17T10:53:46.215Z,101780.16
2022-12-17T10:56:46.882Z,101793.84
2022-12-17T10:59:53.813Z,101782.25
2022-12-17T11:02:47.412Z,101789.78
2022-12-17T11:08:55.252Z,101790.66
2022-12-17T11:11:45.443Z,101791.53
2022-12-17T11:14:38.397Z,101794.03
2022-12-17T11:17:36.280Z,101780.56
2022-12-17T11:20:39.267Z,101785.75
2022-12-17T11:23:36.895Z,101780.34
2022-12-17T11:26:38.157Z,101780.22
2022-12-17T11:29:30.879Z,101776.63
2022-12-17T11:32:41.848Z,101766.97
2022-12-17T11:35:39.311Z,101765.91
2022-12-17T11:38:44.090Z,101766.00
2022-12-17T11:41:47.672Z,101759.66
2022-12-17T11:44:51.839Z,101764.06
2022-12-17T11:47:46.152Z,101765.75
2022-12-17T11:50:39.685Z,101766.56
2022-12-17T11:53:41.155Z,101765.66
2022-12-17T11:56:35.902Z,101756.63
2022-12-17T11:59:49.336Z,101759.25
2022-12-17T12:02:48.892Z,101762.84
2022-12-17T12:05:41.389Z,101757.63
2022-12-17T12:08:28.863Z,101752.44
2022-12-17T12:11:31.216Z,101748.84
2022-12-17T12:14:31.734Z,101753.38
2022-12-17T12:17:26.700Z,101749.88
2022-12-17T12:20:19.271Z,101753.13
2022-12-17T12:23:10.291Z,101756.34
2022-12-17T12:26:28.785Z,101751.19
2022-12-17T12:29:17.552Z,101745.94
2022-12-17T12:32:09.307Z,101754.63
2022-12-17T12:34:59.929Z,101753.69
2022-12-17T12:37:53.681Z,101749.31
2022-12-17T12:40:59.162Z,101753.03
2022-12-17T12:44:06.030Z,101748.16
2022-12-17T12:46:51.616Z,101748.81
2022-12-17T12:49:44.633Z,101753.22
2022-12-17T12:52:46.627Z,101747.03
2022-12-17T12:55:41.037Z,101746.81
2022-12-17T12:58:46.821Z,101732.25
2022-12-17T13:01:34.959Z,101743.41
2022-12-17T13:04:42.401Z,101730.25
2022-12-17T13:07:22.934Z,101733.19
2022-12-17T13:09:55.661Z,101734.41
2022-12-17T13:12:31.574Z,101726.75
2022-12-17T13:14:59.097Z,101720.75
2022-12-17T13:17:36.385Z,101729.31
2022-12-17T13:20:23.219Z,101725.31
2022-12-17T13:22:57.587Z,101720.22
2022-12-17T13:25:28.015Z,101712.38
2022-12-17T13:27:55.297Z,101716.19
2022-12-17T13:30:30.131Z,101716.44
2022-12-17T13:32:57.567Z,101711.91
2022-12-17T13:35:49.048Z,101720.19
2022-12-17T13:38:37.097Z,101721.75
2022-12-17T13:41:14.664Z,101722.75
2022-12-17T13:44:09.412Z,101729.50
2022-12-17T13:46:50.496Z,101739.25
2022-12-17T13:49:35.967Z,101742.06
2022-12-17T13:52:16.659Z,101741.03
2022-12-17T13:54:43.994Z,101740.66
2022-12-17T13:57:14.733Z,101746.53
2022-12-17T13:59:42.414Z,101752.44
2022-12-17T14:02:27.216Z,101752.31
2022-12-17T14:04:55.891Z,101749.16
2022-12-17T14:07:26.137Z,101755.84
2022-12-17T14:09:56.853Z,101755.78
2022-12-17T14:12:26.476Z,101754.69
2022-12-17T14:14:55.339Z,101769.44
2022-12-17T14:17:24.506Z,101764.41
2022-12-17T14:20:02.950Z,101758.91
2022-12-17T14:22:37.096Z,101758.72
2022-12-17T14:25:05.674Z,101762.47
2022-12-17T14:27:36.846Z,101763.13
2022-12-17T14:30:20.765Z,101768.47
2022-12-17T14:32:54.103Z,101771.78
2022-12-17T14:35:26.616Z,101768.25
2022-12-17T14:37:54.456Z,101770.63
2022-12-17T14:40:22.546Z,101772.78
2022-12-17T14:42:53.527Z,101785.69
2022-12-17T14:45:23.066Z,101777.16
2022-12-17T14:48:02.413Z,101783.44
2022-12-17T14:50:32.021Z,101779.00
2022-12-17T14:53:04.216Z,101791.88
2022-12-17T14:55:34.351Z,101789.63
2022-12-17T14:58:23.620Z,101793.91
2022-12-17T15:01:05.126Z,101797.84
2022-12-17T15:03:46.769Z,101796.34
2022-12-17T15:06:25.077Z,101790.22
2022-12-17T15:08:59.304Z,101789.25
2022-12-17T15:11:36.097Z,101793.84
2022-12-17T15:14:09.894Z,101794.31
2022-12-17T15:19:27.265Z,101804.56
2022-12-17T15:22:09.032Z,101800.63
2022-12-17T15:24:53.590Z,101808.78
2022-12-17T15:27:44.202Z,101811.31
2022-12-17T15:30:18.250Z,101821.06
2022-12-17T15:32:47.931Z,101820.44
2022-12-17T15:35:16.247Z,101814.66
2022-12-17T15:37:44.635Z,101827.09
2022-12-17T15:40:15.035Z,101826.91
2022-12-17T15:43:06.515Z,101825.59
2022-12-17T15:45:36.243Z,101827.69
2022-12-17T15:48:08.324Z,101832.94
2022-12-17T15:50:39.097Z,101836.72
2022-12-17T15:53:10.271Z,101845.41
2022-12-17T15:55:38.459Z,101837.56
2022-12-17T15:58:06.931Z,101841.41
2022-12-17T16:00:37.897Z,101836.97
2022-12-17T16:03:06.015Z,101842.75
2022-12-17T16:05:37.487Z,101846.72
2022-12-17T16:08:05.574Z,101845.66
2022-12-17T16:10:40.206Z,101852.84
2022-12-17T16:13:10.144Z,101851.09
2022-12-17T16:15:40.016Z,101850.94
2022-12-17T16:18:09.018Z,101856.44
2022-12-17T16:20:44.900Z,101859.53
2022-12-17T16:23:12.104Z,101865.38
2022-12-17T16:25:40.194Z,101862.97
2022-12-17T16:28:15.128Z,101869.75
2022-12-17T16:30:45.515Z,101879.66
2022-12-17T16:33:22.739Z,101885.53
2022-12-17T16:35:53.964Z,101890.94
2022-12-17T16:38:32.508Z,101892.28
2022-12-17T16:41:07.212Z,101889.06
2022-12-17T16:43:34.915Z,101891.19
2022-12-17T16:46:11.954Z,101898.50
2022-12-17T16:48:42.141Z,101898.69
2022-12-17T16:51:28.949Z,101900.19
2022-12-17T16:54:00.663Z,101897.56
2022-12-17T16:59:41.666Z,101909.63
2022-12-17T17:02:18.567Z,101914.09
2022-12-17T17:04:50.612Z,101917.06
2022-12-17T17:07:21.122Z,101909.94
2022-12-17T17:09:53.903Z,101922.44
2022-12-17T17:12:21.051Z,101917.91
2022-12-17T17:14:50.498Z,101919.41
2022-12-17T17:17:20.374Z,101944.53
2022-12-17T17:20:07.844Z,101938.16
2022-12-17T17:22:40.210Z,101939.38
2022-12-17T17:25:07.950Z,101950.28
2022-12-17T17:27:35.238Z,101951.03
2022-12-17T17:30:12.168Z,101948.66
2022-12-17T17:32:48.747Z,101949.31
2022-12-17T17:35:17.123Z,101964.47
2022-12-17T17:37:56.067Z,101963.28
2022-12-17T17:40:27.838Z,101953.63
2022-12-17T17:42:57.794Z,101963.94
2022-12-17T17:45:25.304Z,101963.66
2022-12-17T17:47:52.662Z,101970.13
2022-12-17T17:50:24.111Z,101963.03
2022-12-17T17:52:52.129Z,101954.69
2022-12-17T17:55:19.424Z,101958.38
2022-12-17T17:57:50.053Z,101964.56
2022-12-17T18:00:22.762Z,101965.41
2022-12-17T18:02:54.111Z,101959.34
2022-12-17T18:05:25.902Z,101961.06
2022-12-17T18:07:55.459Z,101961.63
2022-12-17T18:10:24.318Z,101973.94
2022-12-17T18:13:12.494Z,101982.94
2022-12-17T18:15:53.767Z,101986.53
2022-12-17T18:18:30.870Z,101986.59
2022-12-17T18:21:07.815Z,101987.38
2022-12-17T18:23:42.989Z,101992.63
2022-12-17T18:26:10.006Z,101997.06
2022-12-17T18:28:38.521Z,101997.97
2022-12-17T18:31:08.539Z,102010.41
2022-12-17T18:33:37.756Z,102003.16
2022-12-17T18:36:18.799Z,102005.03
2022-12-17T18:38:46.099Z,102010.56
2022-12-17T18:41:33.651Z,102016.47
2022-12-17T18:44:02.709Z,102022.19
2022-12-17T18:46:30.148Z,102033.59
2022-12-17T18:49:03.809Z,102031.97
2022-12-17T18:51:30.914Z,102036.13
2022-12-17T18:53:59.086Z,102043.00
2022-12-17T18:56:59.933Z,102042.47
2022-12-17T18:59:24.204Z,102052.06
2022-12-17T19:01:57.406Z,102051.97
2022-12-17T19:04:29.387Z,102058.09
2022-12-17T19:06:59.329Z,102066.81
2022-12-17T19:09:37.222Z,102064.22
2022-12-17T19:12:08.707Z,102062.59
2022-12-17T19:14:38.670Z,102066.72
2022-12-17T19:17:06.422Z,102062.50
2022-12-17T19:19:39.929Z,102055.69
2022-12-17T19:22:09.304Z,102057.28
2022-12-17T19:24:36.737Z,102064.34
2022-12-17T19:27:04.100Z,102065.13
2022-12-17T19:29:34.352Z,102072.91
2022-12-17T19:32:11.109Z,102074.59
2022-12-17T19:34:39.024Z,102076.41
2022-12-17T19:37:11.754Z,102086.81
2022-12-17T19:39:43.014Z,102088.50
2022-12-17T19:42:37.482Z,102085.88
2022-12-17T19:45:11.150Z,102090.16
2022-12-17T19:47:38.610Z,102091.84
2022-12-17T19:53:03.482Z,102107.50
2022-12-17T19:55:35.724Z,102108.00
2022-12-17T19:58:06.561Z,102106.50
2022-12-17T20:00:37.506Z,102111.94
2022-12-17T20:03:07.411Z,102112.75
2022-12-17T20:05:37.746Z,102113.50
2022-12-17T20:08:07.979Z,102118.66
2022-12-17T20:10:38.851Z,102121.31
2022-12-17T20:13:10.079Z,102122.34
2022-12-17T20:15:52.347Z,102119.72
2022-12-17T20:18:34.605Z,102122.16
2022-12-17T20:21:13.584Z,102124.81
2022-12-17T20:23:47.810Z,102122.28
2022-12-17T20:26:27.353Z,102127.53
2022-12-17T20:29:03.704Z,102122.91
2022-12-17T20:31:45.528Z,102122.22
2022-12-17T20:34:20.369Z,102118.63
2022-12-17T20:37:04.215Z,102118.53
2022-12-17T20:39:34.822Z,102122.88
2022-12-17T20:42:11.389Z,102121.94
2022-12-17T20:44:53.398Z,102133.09
2022-12-17T20:47:33.447Z,102133.00
2022-12-17T20:50:10.634Z,102131.97
2022-12-17T20:52:55.468Z,102139.72
2022-12-17T20:55:31.245Z,102138.72
2022-12-17T20:58:12.085Z,102137.47
2022-12-17T21:00:46.396Z,102144.41
2022-12-17T21:03:16.364Z,102140.97
2022-12-17T21:05:50.089Z,102147.00
2022-12-17T21:08:21.998Z,102145.09
2022-12-17T21:10:58.992Z,102142.56
2022-12-17T21:13:29.601Z,102151.16
2022-12-17T21:16:01.155Z,102148.56
2022-12-17T21:18:32.195Z,102153.63
2022-12-17T21:21:01.116Z,102152.69
2022-12-17T21:23:33.727Z,102159.66
2022-12-17T21:26:20.125Z,102163.94
2022-12-17T21:28:56.102Z,102173.47
2022-12-17T21:32:03.523Z,102164.66
2022-12-17T21:34:44.728Z,102160.97
2022-12-17T21:37:31.870Z,102156.75
2022-12-17T21:40:08.921Z,102160.19
2022-12-17T21:43:08.230Z,102159.25
2022-12-17T21:45:41.781Z,102158.53
2022-12-17T21:48:41.576Z,102151.38
2022-12-17T21:51:51.975Z,102156.53
2022-12-17T21:54:56.332Z,102166.78
2022-12-17T21:57:55.396Z,102166.09
2022-12-17T22:00:32.257Z,102170.28
2022-12-17T22:03:05.399Z,102175.34
2022-12-17T22:05:48.492Z,102169.19
2022-12-17T22:08:19.547Z,102165.69
2022-12-17T22:10:50.779Z,102174.28
2022-12-17T22:13:46.304Z,102188.09
2022-12-17T22:16:19.491Z,102188.81
2022-12-17T22:18:52.895Z,102189.75
2022-12-17T22:21:47.506Z,102192.25
2022-12-17T22:24:28.008Z,102192.97
2022-12-17T22:27:09.444Z,102187.56
2022-12-17T22:29:57.617Z,102192.72
2022-12-17T22:32:46.935Z,102191.91
2022-12-17T22:36:04.163Z,102196.94
2022-12-17T22:41:17.396Z,102199.34
2022-12-17T22:44:34.798Z,102203.78
2022-12-17T22:44:41.157Z,102199.34
2022-12-17T22:47:01.297Z,102214.94
2022-12-17T22:49:34.776Z,102213.88
2022-12-17T22:52:10.622Z,102220.81
2022-12-17T22:54:44.443Z,102220.00
2022-12-17T22:57:36.661Z,102225.31
2022-12-17T23:00:03.024Z,102222.69
2022-12-17T23:02:33.304Z,102226.19
2022-12-17T23:05:02.338Z,102218.38
2022-12-17T23:07:57.663Z,102222.44
2022-12-17T23:10:32.408Z,102221.88
2022-12-17T23:12:59.767Z,102223.34
2022-12-17T23:15:38.474Z,102222.75
2022-12-17T23:18:10.284Z,102222.66
2022-12-17T23:20:37.462Z,102218.50
2022-12-17T23:23:05.173Z,102221.09
2022-12-17T23:25:34.945Z,102225.47
2022-12-17T23:28:05.464Z,102229.69
2022-12-17T23:30:36.768Z,102232.06
2022-12-17T23:33:05.593Z,102225.00
2022-12-17T23:35:36.721Z,102226.72
2022-12-17T23:38:04.318Z,102231.81
2022-12-17T23:40:31.734Z,102231.88
2022-12-17T23:43:01.252Z,102249.06
2022-12-17T23:45:28.726Z,102239.47
2022-12-17T23:47:57.786Z,102247.03
2022-12-17T23:50:24.843Z,102244.16
2022-12-17T23:52:52.035Z,102248.41
2022-12-17T23:55:19.094Z,102249.13
2022-12-17T23:57:46.159Z,102246.09
